createdAt,value
2018-07-26T00:00:44.854Z,99.60
2018-07-26T00:03:18.899Z,99.70
2018-07-26T00:06:05.799Z,99.50
2018-07-26T00:08:48.243Z,99.60
2018-07-26T00:11:17.871Z,99.80
2018-07-26T00:13:48.184Z,99.80
2018-07-26T00:16:17.846Z,99.90
2018-07-26T00:18:47.073Z,99.90
2018-07-26T00:21:18.378Z,99.90
2018-07-26T00:23:50.675Z,99.90
2018-07-26T00:26:23.768Z,99.90
2018-07-26T00:28:53.786Z,99.90
2018-07-26T00:34:01.922Z,99.90
2018-07-26T00:36:31.565Z,99.90
2018-07-26T00:39:01.315Z,99.90
2018-07-26T00:41:32.527Z,99.90
2018-07-26T00:44:01.751Z,99.90
2018-07-26T00:46:33.515Z,99.90
2018-07-26T00:49:03.651Z,99.90
2018-07-26T00:51:32.930Z,99.90
2018-07-26T00:54:02.484Z,99.90
2018-07-26T00:56:34.971Z,99.90
2018-07-26T00:59:05.992Z,99.90
2018-07-26T01:01:35.206Z,99.90
2018-07-26T01:04:06.292Z,99.90
2018-07-26T01:06:36.187Z,99.90
2018-07-26T01:09:08.325Z,99.90
2018-07-26T01:11:37.787Z,99.90
2018-07-26T01:14:10.910Z,99.90
2018-07-26T01:16:41.724Z,99.90
2018-07-26T01:19:11.846Z,99.90
2018-07-26T01:21:41.911Z,99.90
2018-07-26T01:24:13.194Z,99.90
2018-07-26T01:29:29.156Z,99.90
2018-07-26T01:31:58.431Z,99.90
2018-07-26T01:34:28.228Z,99.90
2018-07-26T01:37:07.611Z,99.90
2018-07-26T01:39:41.674Z,99.90
2018-07-26T01:42:11.886Z,99.90
2018-07-26T01:44:58.487Z,99.90
2018-07-26T01:47:27.639Z,99.90
2018-07-26T01:49:56.859Z,99.90
2018-07-26T01:52:30.639Z,99.90
2018-07-26T01:54:59.834Z,99.90
2018-07-26T01:57:29.714Z,99.90
2018-07-26T02:00:00.571Z,99.90
2018-07-26T02:02:29.826Z,99.90
2018-07-26T02:04:59.615Z,99.90
2018-07-26T02:07:28.783Z,99.90
2018-07-26T02:09:58.039Z,99.90
2018-07-26T02:12:29.363Z,99.90
2018-07-26T02:14:59.457Z,99.90
2018-07-26T02:17:28.679Z,99.90
2018-07-26T02:19:57.895Z,99.90
2018-07-26T02:22:27.170Z,99.90
2018-07-26T02:24:56.451Z,99.90
2018-07-26T02:27:26.800Z,99.90
2018-07-26T02:29:55.973Z,99.90
2018-07-26T02:32:25.975Z,99.90
2018-07-26T02:34:55.571Z,99.90
2018-07-26T02:39:58.224Z,99.90
2018-07-26T02:42:28.152Z,99.90
2018-07-26T02:44:57.391Z,99.90
2018-07-26T02:47:28.342Z,99.90
2018-07-26T02:49:57.616Z,99.90
2018-07-26T02:52:27.451Z,99.90
2018-07-26T02:54:56.755Z,99.90
2018-07-26T02:57:26.071Z,99.90
2018-07-26T02:59:55.272Z,99.90
2018-07-26T03:02:24.704Z,99.90
2018-07-26T03:04:54.912Z,99.90
2018-07-26T03:07:24.259Z,99.90
2018-07-26T03:09:53.434Z,99.90
2018-07-26T03:12:22.634Z,99.90
2018-07-26T03:14:51.897Z,99.90
2018-07-26T03:17:21.195Z,99.90
2018-07-26T03:19:51.037Z,99.90
2018-07-26T03:22:20.631Z,99.90
2018-07-26T03:24:49.879Z,99.90
2018-07-26T03:27:19.679Z,99.90
2018-07-26T03:29:49.151Z,99.90
2018-07-26T03:32:19.577Z,99.90
2018-07-26T03:34:48.781Z,99.90
2018-07-26T03:37:18.063Z,99.90
2018-07-26T03:39:47.621Z,99.90
2018-07-26T03:42:16.835Z,99.90
2018-07-26T03:44:47.859Z,99.90
2018-07-26T03:47:17.104Z,99.90
2018-07-26T03:49:46.707Z,99.90
2018-07-26T03:52:16.678Z,99.90
2018-07-26T03:54:46.976Z,99.90
2018-07-26T03:57:16.320Z,99.90
2018-07-26T03:59:49.379Z,99.90
2018-07-26T04:02:18.707Z,99.90
2018-07-26T04:04:48.888Z,99.90
2018-07-26T04:07:28.905Z,99.90
2018-07-26T04:09:58.038Z,99.90
2018-07-26T04:12:28.750Z,99.90
2018-07-26T04:14:58.056Z,99.90
2018-07-26T04:17:29.119Z,99.90
2018-07-26T04:19:58.423Z,99.90
2018-07-26T04:24:57.559Z,99.90
2018-07-26T04:27:27.147Z,99.90
2018-07-26T04:29:56.375Z,99.90
2018-07-26T04:32:25.708Z,99.90
2018-07-26T04:34:55.161Z,99.90
2018-07-26T04:37:25.100Z,99.90
2018-07-26T04:39:54.297Z,99.90
2018-07-26T04:44:52.304Z,99.90
2018-07-26T04:47:21.519Z,99.90
2018-07-26T04:49:51.685Z,99.90
2018-07-26T04:52:21.415Z,99.90
2018-07-26T04:57:19.551Z,99.90
2018-07-26T04:59:50.639Z,99.90
2018-07-26T05:02:19.898Z,99.90
2018-07-26T05:04:49.072Z,99.90
2018-07-26T05:07:19.279Z,99.90
2018-07-26T05:09:50.631Z,99.90
2018-07-26T05:12:24.599Z,99.90
2018-07-26T05:14:55.221Z,99.90
2018-07-26T05:17:25.257Z,99.90
2018-07-26T05:19:57.153Z,99.90
2018-07-26T05:22:28.030Z,99.90
2018-07-26T05:24:57.331Z,99.90
2018-07-26T05:29:55.328Z,99.90
2018-07-26T05:32:24.547Z,99.90
2018-07-26T05:34:53.818Z,99.90
2018-07-26T05:37:23.708Z,99.90
2018-07-26T05:39:53.362Z,99.90
2018-07-26T05:42:22.643Z,99.90
2018-07-26T05:44:51.855Z,99.90
2018-07-26T05:47:21.167Z,99.90
2018-07-26T05:49:51.284Z,99.90
2018-07-26T05:52:21.339Z,99.90
2018-07-26T05:54:56.625Z,99.90
2018-07-26T05:57:25.807Z,99.90
2018-07-26T05:59:55.191Z,99.90
2018-07-26T06:02:25.265Z,99.90
2018-07-26T06:04:56.794Z,99.90
2018-07-26T06:07:26.599Z,99.90
2018-07-26T06:10:01.797Z,99.90
2018-07-26T06:12:31.331Z,99.90
2018-07-26T06:15:01.596Z,99.80
2018-07-26T06:17:32.579Z,99.50
2018-07-26T06:22:31.572Z,99.20
2018-07-26T06:25:00.740Z,99.00
2018-07-26T06:27:30.040Z,98.70
2018-07-26T06:30:01.772Z,98.30
2018-07-26T06:32:30.959Z,98.30
2018-07-26T06:35:00.897Z,97.70
2018-07-26T06:37:30.118Z,97.50
2018-07-26T06:39:59.331Z,96.90
2018-07-26T06:42:28.600Z,96.10
2018-07-26T06:44:57.767Z,96.00
2018-07-26T06:47:27.984Z,95.70
2018-07-26T06:49:57.246Z,95.30
2018-07-26T06:52:28.938Z,94.80
2018-07-26T06:54:58.557Z,94.00
2018-07-26T06:57:27.785Z,94.10
2018-07-26T06:59:57.010Z,93.60
2018-07-26T07:04:55.083Z,93.50
2018-07-26T07:07:24.482Z,92.40
2018-07-26T07:09:54.275Z,91.70
2018-07-26T07:12:23.489Z,92.00
2018-07-26T07:14:53.231Z,92.00
2018-07-26T07:17:22.471Z,91.70
2018-07-26T07:19:51.762Z,91.30
2018-07-26T07:22:21.180Z,91.20
2018-07-26T07:24:51.495Z,91.20
2018-07-26T07:27:22.103Z,90.20
2018-07-26T07:29:52.423Z,90.00
2018-07-26T07:32:21.591Z,88.50
2018-07-26T07:34:55.651Z,89.10
2018-07-26T07:37:24.855Z,87.30
2018-07-26T07:39:54.150Z,85.80
2018-07-26T07:42:26.057Z,85.00
2018-07-26T07:44:56.134Z,86.00
2018-07-26T07:47:25.512Z,84.40
2018-07-26T07:49:55.308Z,81.80
2018-07-26T07:54:59.184Z,81.30
2018-07-26T07:57:30.722Z,80.00
2018-07-26T08:00:00.402Z,79.80
2018-07-26T08:02:32.053Z,78.00
2018-07-26T08:05:01.372Z,77.00
2018-07-26T08:07:31.746Z,77.60
2018-07-26T08:10:01.051Z,78.00
2018-07-26T08:12:31.450Z,73.70
2018-07-26T08:15:00.740Z,72.20
2018-07-26T08:17:30.643Z,75.00
2018-07-26T08:20:01.687Z,75.00
2018-07-26T08:22:31.403Z,72.80
2018-07-26T08:25:02.107Z,72.50
2018-07-26T08:27:32.094Z,74.10
2018-07-26T08:30:01.510Z,70.20
2018-07-26T08:32:31.545Z,70.70
2018-07-26T08:35:00.986Z,68.30
2018-07-26T08:37:31.655Z,69.50
2018-07-26T08:40:02.182Z,69.90
2018-07-26T08:42:31.830Z,67.10
2018-07-26T08:45:01.115Z,68.80
2018-07-26T08:47:31.407Z,68.50
2018-07-26T08:50:03.642Z,67.70
2018-07-26T08:52:33.255Z,65.70
2018-07-26T08:55:03.602Z,64.50
2018-07-26T08:57:33.319Z,63.70
2018-07-26T09:00:04.104Z,61.80
2018-07-26T09:02:33.411Z,62.40
2018-07-26T09:05:02.678Z,61.20
2018-07-26T09:07:31.997Z,61.30
2018-07-26T09:10:01.527Z,61.70
2018-07-26T09:12:30.799Z,60.60
2018-07-26T09:15:00.190Z,60.00
2018-07-26T09:17:29.439Z,58.30
2018-07-26T09:19:58.907Z,58.10
2018-07-26T09:22:28.947Z,57.60
2018-07-26T09:24:58.242Z,55.80
2018-07-26T09:27:27.646Z,56.00
2018-07-26T09:29:56.910Z,55.90
2018-07-26T09:32:26.211Z,55.00
2018-07-26T09:34:55.472Z,55.60
2018-07-26T09:39:53.528Z,55.60
2018-07-26T09:42:22.751Z,53.90
2018-07-26T09:44:52.240Z,54.90
2018-07-26T09:47:21.551Z,54.70
2018-07-26T09:49:51.266Z,53.30
2018-07-26T09:52:20.575Z,53.30
2018-07-26T09:54:49.753Z,51.10
2018-07-26T09:57:19.891Z,51.30
2018-07-26T09:59:49.114Z,48.80
2018-07-26T10:02:18.383Z,49.10
2018-07-26T10:04:47.607Z,49.80
2018-07-26T10:07:17.016Z,49.20
2018-07-26T10:09:46.311Z,49.80
2018-07-26T10:12:15.830Z,49.50
2018-07-26T10:14:45.036Z,47.60
2018-07-26T10:17:14.242Z,45.30
2018-07-26T10:19:43.459Z,46.00
2018-07-26T10:22:12.718Z,47.70
2018-07-26T10:24:41.944Z,45.60
2018-07-26T10:27:11.492Z,48.20
2018-07-26T10:32:09.619Z,47.60
2018-07-26T10:34:38.891Z,46.70
2018-07-26T10:37:08.661Z,46.50
2018-07-26T10:39:37.912Z,46.20
2018-07-26T10:42:07.126Z,44.10
2018-07-26T10:44:37.120Z,44.80
2018-07-26T10:47:06.745Z,41.70
2018-07-26T10:49:36.553Z,44.40
2018-07-26T10:52:06.395Z,42.90
2018-07-26T10:54:35.628Z,43.20
2018-07-26T10:57:04.872Z,42.80
2018-07-26T10:59:34.204Z,42.70
2018-07-26T11:02:03.475Z,42.90
2018-07-26T11:04:32.662Z,43.10
2018-07-26T11:07:01.887Z,42.40
2018-07-26T11:09:31.135Z,42.40
2018-07-26T11:12:01.061Z,42.40
2018-07-26T11:14:30.284Z,40.70
2018-07-26T11:16:59.535Z,42.80
2018-07-26T11:19:28.934Z,41.60
2018-07-26T11:24:27.138Z,38.70
2018-07-26T11:26:56.423Z,40.60
2018-07-26T11:29:26.073Z,39.60
2018-07-26T11:31:55.739Z,40.00
2018-07-26T11:34:24.997Z,41.00
2018-07-26T11:36:54.483Z,38.70
2018-07-26T11:39:23.960Z,38.30
2018-07-26T11:41:53.243Z,37.80
2018-07-26T11:44:22.646Z,38.40
2018-07-26T11:46:52.030Z,38.90
2018-07-26T11:49:21.280Z,38.90
2018-07-26T11:51:50.570Z,38.70
2018-07-26T11:54:19.843Z,38.00
2018-07-26T11:56:49.116Z,37.40
2018-07-26T11:59:19.036Z,39.10
2018-07-26T12:01:48.260Z,36.00
2018-07-26T12:04:17.491Z,37.00
2018-07-26T12:06:46.836Z,37.20
2018-07-26T12:09:16.447Z,36.90
2018-07-26T12:11:45.707Z,38.60
2018-07-26T12:14:15.088Z,37.20
2018-07-26T12:16:44.759Z,38.50
2018-07-26T12:19:14.072Z,37.90
2018-07-26T12:21:43.424Z,36.80
2018-07-26T12:24:12.847Z,38.50
2018-07-26T12:26:42.113Z,36.10
2018-07-26T12:29:11.611Z,37.50
2018-07-26T12:31:41.568Z,35.30
2018-07-26T12:34:10.791Z,33.30
2018-07-26T12:36:39.997Z,34.80
2018-07-26T12:39:11.574Z,36.10
2018-07-26T12:41:40.975Z,36.40
2018-07-26T12:44:10.813Z,35.90
2018-07-26T12:46:40.786Z,37.70
2018-07-26T12:51:39.728Z,37.00
2018-07-26T12:54:08.962Z,38.30
2018-07-26T12:56:38.282Z,38.90
2018-07-26T12:59:07.539Z,39.80
2018-07-26T13:01:36.881Z,37.20
2018-07-26T13:04:06.413Z,38.20
2018-07-26T13:06:35.666Z,38.10
2018-07-26T13:09:08.282Z,36.60
2018-07-26T13:11:38.168Z,38.40
2018-07-26T13:14:09.005Z,39.10
2018-07-26T13:16:38.248Z,38.40
2018-07-26T13:19:07.577Z,37.90
2018-07-26T13:21:37.491Z,37.70
2018-07-26T13:24:06.869Z,38.30
2018-07-26T13:26:36.558Z,36.30
2018-07-26T13:29:05.853Z,37.60
2018-07-26T13:31:35.530Z,37.20
2018-07-26T13:34:05.002Z,36.70
2018-07-26T13:36:34.580Z,36.50
2018-07-26T13:39:07.143Z,37.20
2018-07-26T13:41:36.576Z,35.90
2018-07-26T13:44:06.435Z,36.00
2018-07-26T13:46:35.704Z,35.00
2018-07-26T13:49:05.362Z,37.30
2018-07-26T13:51:34.687Z,36.20
2018-07-26T13:54:06.629Z,36.00
2018-07-26T13:56:35.934Z,36.40
2018-07-26T14:01:34.564Z,37.40
2018-07-26T14:04:03.849Z,37.30
2018-07-26T14:06:40.125Z,38.60
2018-07-26T14:09:11.153Z,33.70
2018-07-26T14:11:40.853Z,38.70
2018-07-26T14:14:10.574Z,38.10
2018-07-26T14:16:39.884Z,38.00
2018-07-26T14:19:09.964Z,37.60
2018-07-26T14:21:39.204Z,35.80
2018-07-26T14:24:12.852Z,37.50
2018-07-26T14:26:42.078Z,38.10
2018-07-26T14:29:11.504Z,35.60
2018-07-26T14:31:41.528Z,37.80
2018-07-26T14:34:11.893Z,36.60
2018-07-26T14:36:41.203Z,38.20
2018-07-26T14:39:11.195Z,37.00
2018-07-26T14:41:40.963Z,38.00
2018-07-26T14:44:10.763Z,37.00
2018-07-26T14:46:40.283Z,36.30
2018-07-26T14:49:09.555Z,38.80
2018-07-26T14:51:38.791Z,38.50
2018-07-26T14:54:08.095Z,38.40
2018-07-26T14:56:38.354Z,39.10
2018-07-26T14:59:08.088Z,39.00
2018-07-26T15:01:37.385Z,38.20
2018-07-26T15:04:09.506Z,38.30
2018-07-26T15:09:09.490Z,38.80
2018-07-26T15:11:38.989Z,37.70
2018-07-26T15:14:08.553Z,39.20
2018-07-26T15:16:38.640Z,38.50
2018-07-26T15:19:08.103Z,38.20
2018-07-26T15:21:37.363Z,37.60
2018-07-26T15:26:35.743Z,42.10
2018-07-26T15:29:05.060Z,38.30
2018-07-26T15:31:34.286Z,41.00
2018-07-26T15:34:03.645Z,40.90
2018-07-26T15:36:33.407Z,40.70
2018-07-26T15:39:03.797Z,41.70
2018-07-26T15:41:32.999Z,41.60
2018-07-26T15:44:02.506Z,41.00
2018-07-26T15:46:31.709Z,42.20
2018-07-26T15:49:00.965Z,40.90
2018-07-26T15:51:30.249Z,40.80
2018-07-26T15:53:59.834Z,44.50
2018-07-26T15:56:30.391Z,42.70
2018-07-26T15:58:59.974Z,42.60
2018-07-26T16:01:29.360Z,43.60
2018-07-26T16:03:59.328Z,46.20
2018-07-26T16:06:29.923Z,44.70
2018-07-26T16:08:59.142Z,47.70
2018-07-26T16:11:28.512Z,46.30
2018-07-26T16:13:57.767Z,42.50
2018-07-26T16:16:26.964Z,44.40
2018-07-26T16:18:56.307Z,42.90
2018-07-26T16:21:25.557Z,47.20
2018-07-26T16:23:54.917Z,45.80
2018-07-26T16:26:24.234Z,44.10
2018-07-26T16:28:53.540Z,44.10
2018-07-26T16:31:23.658Z,45.10
2018-07-26T16:33:52.940Z,46.20
2018-07-26T16:36:23.383Z,43.10
2018-07-26T16:38:53.769Z,45.90
2018-07-26T16:41:23.101Z,43.90
2018-07-26T16:43:52.695Z,44.20
2018-07-26T16:46:21.945Z,46.40
2018-07-26T16:48:51.286Z,45.70
2018-07-26T16:51:20.827Z,45.40
2018-07-26T16:53:50.119Z,47.10
2018-07-26T16:56:19.314Z,44.10
2018-07-26T16:58:50.275Z,45.30
2018-07-26T17:01:19.492Z,46.10
2018-07-26T17:03:49.461Z,46.90
2018-07-26T17:06:18.685Z,46.00
2018-07-26T17:08:48.370Z,50.50
2018-07-26T17:11:18.345Z,47.20
2018-07-26T17:13:48.465Z,47.20
2018-07-26T17:16:17.699Z,44.20
2018-07-26T17:18:46.995Z,48.30
2018-07-26T17:21:17.068Z,48.40
2018-07-26T17:23:46.341Z,45.70
2018-07-26T17:26:15.713Z,46.70
2018-07-26T17:28:45.162Z,45.90
2018-07-26T17:31:14.360Z,47.30
2018-07-26T17:33:43.990Z,48.60
2018-07-26T17:36:13.498Z,46.00
2018-07-26T17:38:42.780Z,48.20
2018-07-26T17:41:12.840Z,48.60
2018-07-26T17:43:42.144Z,48.90
2018-07-26T17:46:12.300Z,50.50
2018-07-26T17:48:41.555Z,47.80
2018-07-26T17:51:10.878Z,50.30
2018-07-26T17:53:40.220Z,48.60
2018-07-26T17:56:09.735Z,48.40
2018-07-26T17:58:40.411Z,51.80
2018-07-26T18:01:10.138Z,50.50
2018-07-26T18:03:39.711Z,49.30
2018-07-26T18:06:08.932Z,48.60
2018-07-26T18:08:38.174Z,52.60
2018-07-26T18:11:07.766Z,49.30
2018-07-26T18:13:37.083Z,49.50
2018-07-26T18:16:06.438Z,51.10
2018-07-26T18:18:35.774Z,52.50
2018-07-26T18:21:05.236Z,52.20
2018-07-26T18:23:34.562Z,52.30
2018-07-26T18:26:04.941Z,52.10
2018-07-26T18:28:34.568Z,52.60
2018-07-26T18:31:03.954Z,52.30
2018-07-26T18:33:33.282Z,51.20
2018-07-26T18:36:02.617Z,51.10
2018-07-26T18:38:32.075Z,50.80
2018-07-26T18:41:01.492Z,52.50
2018-07-26T18:43:31.143Z,53.80
2018-07-26T18:46:00.954Z,56.00
2018-07-26T18:48:30.283Z,53.80
2018-07-26T18:50:59.744Z,51.30
2018-07-26T18:53:29.167Z,52.90
2018-07-26T18:55:58.489Z,54.60
2018-07-26T18:58:28.038Z,53.00
2018-07-26T19:00:57.491Z,51.70
2018-07-26T19:03:26.759Z,52.00
2018-07-26T19:05:56.050Z,57.00
2018-07-26T19:08:25.362Z,55.20
2018-07-26T19:10:55.023Z,55.20
2018-07-26T19:13:24.251Z,54.00
2018-07-26T19:15:53.995Z,54.60
2018-07-26T19:18:23.296Z,56.30
2018-07-26T19:20:52.695Z,54.00
2018-07-26T19:23:22.299Z,54.50
2018-07-26T19:25:51.985Z,56.00
2018-07-26T19:28:21.292Z,53.10
2018-07-26T19:30:50.596Z,56.60
2018-07-26T19:33:20.279Z,53.80
2018-07-26T19:35:50.234Z,53.50
2018-07-26T19:38:20.389Z,53.30
2018-07-26T19:40:49.687Z,53.90
2018-07-26T19:43:19.830Z,55.40
2018-07-26T19:45:49.291Z,53.50
2018-07-26T19:48:19.315Z,54.60
2018-07-26T19:50:48.621Z,55.00
2018-07-26T19:53:18.389Z,54.10
2018-07-26T19:55:47.804Z,54.20
2018-07-26T19:58:17.089Z,54.70
2018-07-26T20:00:48.133Z,55.40
2018-07-26T20:03:18.175Z,55.40
2018-07-26T20:05:48.028Z,54.90
2018-07-26T20:08:18.191Z,55.10
2018-07-26T20:10:47.564Z,54.80
2018-07-26T20:13:17.627Z,56.30
2018-07-26T20:15:46.898Z,56.10
2018-07-26T20:18:16.715Z,56.40
2018-07-26T20:20:46.819Z,56.80
2018-07-26T20:23:16.123Z,56.50
2018-07-26T20:25:47.624Z,56.70
2018-07-26T20:30:46.376Z,56.50
2018-07-26T20:33:15.918Z,56.70
2018-07-26T20:35:45.107Z,57.70
2018-07-26T20:38:17.272Z,56.90
2018-07-26T20:40:46.896Z,56.80
2018-07-26T20:43:16.124Z,57.70
2018-07-26T20:45:45.418Z,57.40
2018-07-26T20:48:14.749Z,57.80
2018-07-26T20:50:44.998Z,58.60
2018-07-26T20:53:14.903Z,58.30
2018-07-26T20:55:45.569Z,59.00
2018-07-26T20:58:15.201Z,58.70
2018-07-26T21:00:44.451Z,59.10
2018-07-26T21:03:13.707Z,59.70
2018-07-26T21:05:43.079Z,59.70
2018-07-26T21:08:12.595Z,60.10
2018-07-26T21:10:43.040Z,60.10
2018-07-26T21:15:42.102Z,61.70
2018-07-26T21:18:11.412Z,61.60
2018-07-26T21:20:41.007Z,61.20
2018-07-26T21:23:11.494Z,61.30
2018-07-26T21:25:41.516Z,61.50
2018-07-26T21:28:10.766Z,62.30
2018-07-26T21:30:40.023Z,63.00
2018-07-26T21:33:09.251Z,62.60
2018-07-26T21:35:38.517Z,62.40
2018-07-26T21:38:08.127Z,62.90
2018-07-26T21:40:37.361Z,64.20
2018-07-26T21:43:07.236Z,64.30
2018-07-26T21:45:36.512Z,65.90
2018-07-26T21:48:05.737Z,65.00
2018-07-26T21:50:35.038Z,66.50
2018-07-26T21:53:05.259Z,66.30
2018-07-26T21:55:34.834Z,66.20
2018-07-26T21:58:04.114Z,66.50
2018-07-26T22:09:10.262Z,66.20
2018-07-26T22:11:40.183Z,67.10
2018-07-26T22:14:09.659Z,67.30
2018-07-26T22:16:38.884Z,68.70
2018-07-26T22:19:08.119Z,67.90
2018-07-26T22:21:37.987Z,68.50
2018-07-26T22:24:07.676Z,67.70
2018-07-26T22:26:36.911Z,67.40
2018-07-26T22:29:06.235Z,67.40
2018-07-26T22:31:35.479Z,67.80
2018-07-26T22:34:05.720Z,67.50
2018-07-26T22:36:34.938Z,68.20
2018-07-26T22:39:06.195Z,68.80
2018-07-26T22:41:35.484Z,68.70
2018-07-26T22:44:04.985Z,68.60
2018-07-26T22:46:34.475Z,68.40
2018-07-26T22:49:04.157Z,68.80
2018-07-26T22:51:33.647Z,68.80
2018-07-26T22:54:04.043Z,67.80
2018-07-26T22:56:33.710Z,68.20
2018-07-26T22:59:04.027Z,68.90
2018-07-26T23:01:33.287Z,68.80
2018-07-26T23:04:02.463Z,68.30
2018-07-26T23:06:31.731Z,68.60
2018-07-26T23:09:01.020Z,67.80
2018-07-26T23:11:30.899Z,70.20
2018-07-26T23:14:01.715Z,69.00
2018-07-26T23:16:31.755Z,69.90
2018-07-26T23:19:01.572Z,69.10
2018-07-26T23:21:32.003Z,69.80
2018-07-26T23:24:01.267Z,70.20
2018-07-26T23:26:30.943Z,68.80
2018-07-26T23:29:00.200Z,69.20
2018-07-26T23:31:29.591Z,70.50
2018-07-26T23:33:58.855Z,70.30
2018-07-26T23:36:28.133Z,69.20
2018-07-26T23:38:57.353Z,71.40
2018-07-26T23:41:27.315Z,70.20
2018-07-26T23:43:58.788Z,70.60
2018-07-26T23:46:28.403Z,70.50
2018-07-26T23:48:58.331Z,70.50
2018-07-26T23:51:28.407Z,72.20
2018-07-26T23:53:58.850Z,71.50
2018-07-26T23:56:28.479Z,71.30
2018-07-26T23:58:57.722Z,71.20
